עמוד ראשי
METAR-TAF:

METAR-TAF

שדות תעופה :

Qurayyat, ערב הסעודית

קו רוחב: 31-24N, קו אורך: 037-16E, גובה: 509מטר

תצפית מזג אוויר נוכחית

הדו"ח נערך לפני 1 שעות ו 5דקות, בשעה 23:00 UTC
רוח 10קשר מכיוון מערב/צפון-מערב
טמפרטורת 29 צלסיוס
לחות 22%
לחץ 1008 hPa
ראות 10 קילומטר או יותר
ללא עננים שבסיסם נמוך מ 5000 רגל או קומולונימבוס

METAR: OEGT 152300Z 30010KT CAVOK 29/05 Q1008 NOSIG

זמן: 03:05 (00:05 UTC)

תחזית

הדו"ח נערך לפני 1 שעות ו 5דקות, בשעה 23:00 UTC
תחזית בתוקף מ 16 ב 00 UTC עד 17 ב 06 UTC
רוח 9קשר מכיוון צפון/צפון-מערב
ראות 10 קילומטר או יותר
ללא עננים שבסיסם נמוך מ 5000 רגל או קומולונימבוס

TAF: OEGT 152300Z 1600/1706 34009KT CAVOK

תצפיות ותחזיות מזג אוויר לגבי יותר מ- 4,000 שדות תעופה ברחבי העולם. דוחות METAR ו- TAF.

התחנות הזמינות מסומנות בנקודות צהובות ואדומות על גבי המפה.

העבר את העכבר לנקודה הצבעונית על מנת לראות את שם התחנה.

לאחר מכן, לחץ כדי לראות את תוכן ואת תחזיות מזג האוויר.

כדי לשנות את המפה: לחץ על הכפתורים הירוקים עם הפלוס השחור כדי להתקרב; על הכפתור הירוק עם המקף כדי להתרחק; או בחיצים הירוקים למפות סמוכות.


METAR-TAF: